createdAt,value
2022-08-27T00:01:42.058Z,70.90
2022-08-27T00:06:46.204Z,71.00
2022-08-27T00:11:48.873Z,70.80
2022-08-27T00:16:52.680Z,70.80
2022-08-27T00:21:55.129Z,70.80
2022-08-27T00:26:57.591Z,71.00
2022-08-27T00:32:01.475Z,71.00
2022-08-27T00:37:04.090Z,71.30
2022-08-27T00:42:07.232Z,71.40
2022-08-27T00:47:15.377Z,71.40
2022-08-27T00:52:24.425Z,71.80
2022-08-27T00:57:27.347Z,71.80
2022-08-27T01:02:31.325Z,71.60
2022-08-27T01:07:38.088Z,71.90
2022-08-27T01:12:40.575Z,72.10
2022-08-27T01:17:46.517Z,72.00
2022-08-27T01:22:55.983Z,72.20
2022-08-27T01:28:01.461Z,72.30
2022-08-27T01:33:10.598Z,72.40
2022-08-27T01:38:30.173Z,72.50
2022-08-27T01:43:34.730Z,72.20
2022-08-27T01:48:37.111Z,72.30
2022-08-27T01:53:39.500Z,72.20
2022-08-27T01:58:43.452Z,72.20
2022-08-27T02:03:45.830Z,72.30
2022-08-27T02:08:48.211Z,72.50
2022-08-27T02:13:51.935Z,72.60
2022-08-27T02:18:54.277Z,72.90
2022-08-27T02:23:58.433Z,72.90
2022-08-27T02:29:02.258Z,72.70
2022-08-27T02:34:04.756Z,72.70
2022-08-27T02:39:07.631Z,72.80
2022-08-27T02:44:11.588Z,72.70
2022-08-27T02:49:16.344Z,72.70
2022-08-27T02:54:18.833Z,72.70
2022-08-27T02:59:23.294Z,72.70
2022-08-27T03:04:25.665Z,72.60
2022-08-27T03:09:28.159Z,72.60
2022-08-27T03:14:33.319Z,72.60
2022-08-27T03:19:35.707Z,73.00
2022-08-27T03:24:38.074Z,73.00
2022-08-27T03:29:43.738Z,73.20
2022-08-27T03:34:46.062Z,73.40
2022-08-27T03:39:48.356Z,73.50
2022-08-27T03:44:52.218Z,73.40
2022-08-27T03:49:54.501Z,73.40
2022-08-27T03:54:58.694Z,73.30
2022-08-27T04:00:02.782Z,73.30
2022-08-27T04:05:06.047Z,73.60
2022-08-27T04:10:12.032Z,73.60
2022-08-27T04:15:15.859Z,73.80
2022-08-27T04:20:34.643Z,74.00
2022-08-27T04:25:39.759Z,74.30
2022-08-27T04:30:45.951Z,74.60
2022-08-27T04:35:48.298Z,74.80
2022-08-27T04:40:50.699Z,74.70
2022-08-27T04:45:54.533Z,74.90
2022-08-27T04:50:56.856Z,75.00
2022-08-27T04:55:59.746Z,75.10
2022-08-27T05:01:03.504Z,75.20
2022-08-27T05:06:07.070Z,75.30
2022-08-27T05:11:11.348Z,75.10
2022-08-27T05:16:17.775Z,75.30
2022-08-27T05:21:22.710Z,75.40
2022-08-27T05:26:26.417Z,75.30
2022-08-27T05:31:30.945Z,75.10
2022-08-27T05:36:34.828Z,75.00
2022-08-27T05:41:37.269Z,74.70
2022-08-27T05:46:41.279Z,74.50
2022-08-27T05:51:44.005Z,74.80
2022-08-27T05:56:47.763Z,76.30
2022-08-27T06:01:54.160Z,76.70
2022-08-27T06:06:57.060Z,74.70
2022-08-27T06:12:00.864Z,73.00
2022-08-27T06:17:04.910Z,71.80
2022-08-27T06:22:09.966Z,70.90
2022-08-27T06:27:16.716Z,70.10
2022-08-27T06:32:20.546Z,69.60
2022-08-27T06:37:22.953Z,69.40
2022-08-27T06:42:25.346Z,69.40
2022-08-27T06:47:31.744Z,69.20
2022-08-27T06:52:34.164Z,69.20
2022-08-27T06:57:36.564Z,69.70
2022-08-27T07:02:40.677Z,69.50
2022-08-27T07:07:46.695Z,69.30
2022-08-27T07:12:51.524Z,69.30
2022-08-27T07:17:55.504Z,69.30
2022-08-27T07:22:58.604Z,69.20
2022-08-27T07:28:00.945Z,69.10
2022-08-27T07:33:04.938Z,68.70
2022-08-27T07:38:09.949Z,68.70
2022-08-27T07:43:12.785Z,67.90
2022-08-27T07:48:16.766Z,67.00
2022-08-27T07:53:19.637Z,66.30
2022-08-27T07:58:22.041Z,65.90
2022-08-27T08:03:26.285Z,66.20
2022-08-27T08:08:28.738Z,66.50
2022-08-27T08:13:32.117Z,66.80
2022-08-27T08:18:36.686Z,65.40
2022-08-27T08:23:40.357Z,64.00
2022-08-27T08:28:43.727Z,62.80
2022-08-27T08:33:47.777Z,62.70
2022-08-27T08:38:50.273Z,62.30
2022-08-27T08:43:53.151Z,62.70
2022-08-27T08:49:12.379Z,63.10
2022-08-27T08:54:19.223Z,62.10
2022-08-27T08:59:29.899Z,62.00
2022-08-27T09:04:33.886Z,61.60
2022-08-27T09:09:45.485Z,61.50
2022-08-27T09:14:53.938Z,60.70
2022-08-27T09:19:58.027Z,60.40
2022-08-27T09:25:08.475Z,60.70
2022-08-27T09:30:14.054Z,60.20
2022-08-27T09:35:18.009Z,60.30
2022-08-27T09:40:29.918Z,59.90
2022-08-27T09:45:33.740Z,59.00
2022-08-27T09:50:43.742Z,60.10
2022-08-27T09:55:49.658Z,58.60
2022-08-27T10:01:01.568Z,58.10
2022-08-27T10:06:06.667Z,56.10
2022-08-27T10:11:14.626Z,57.10
2022-08-27T10:16:36.450Z,58.30
2022-08-27T10:21:47.267Z,55.50
2022-08-27T10:26:59.276Z,54.50
2022-08-27T10:32:16.705Z,51.70
2022-08-27T10:37:36.732Z,51.40
2022-08-27T10:42:57.638Z,52.70
2022-08-27T10:48:08.551Z,51.10
2022-08-27T10:53:22.876Z,49.80
2022-08-27T10:58:39.532Z,49.90
2022-08-27T11:03:46.100Z,51.40
2022-08-27T11:08:56.643Z,50.50
2022-08-27T11:14:01.043Z,49.70
2022-08-27T11:19:13.192Z,49.70
2022-08-27T11:24:26.001Z,48.70
2022-08-27T11:29:33.644Z,49.00
2022-08-27T11:34:43.568Z,48.90
2022-08-27T11:40:02.091Z,48.20
2022-08-27T11:45:08.511Z,47.70
2022-08-27T11:50:20.064Z,48.10
2022-08-27T11:55:30.905Z,47.00
2022-08-27T12:00:35.912Z,46.40
2022-08-27T12:05:42.329Z,46.30
2022-08-27T12:10:58.642Z,46.50
2022-08-27T12:16:08.890Z,45.00
2022-08-27T12:21:22.764Z,45.50
2022-08-27T12:26:33.471Z,44.20
2022-08-27T12:31:37.672Z,44.60
2022-08-27T12:36:41.624Z,45.90
2022-08-27T12:41:48.894Z,45.50
2022-08-27T12:46:54.461Z,44.70
2022-08-27T12:52:02.096Z,45.00
2022-08-27T12:57:15.117Z,45.20
2022-08-27T13:02:43.053Z,44.60
2022-08-27T13:07:46.976Z,43.80
2022-08-27T13:13:03.936Z,44.00
2022-08-27T13:18:06.674Z,43.80
2022-08-27T13:23:18.536Z,44.60
2022-08-27T13:28:28.536Z,43.40
2022-08-27T13:33:33.656Z,43.30
2022-08-27T13:38:38.871Z,44.10
2022-08-27T13:43:45.463Z,43.70
2022-08-27T13:48:51.385Z,43.40
2022-08-27T13:53:54.056Z,43.50
2022-08-27T13:59:09.162Z,43.70
2022-08-27T14:04:23.301Z,43.30
2022-08-27T14:09:28.538Z,43.90
2022-08-27T14:14:37.984Z,44.10
2022-08-27T14:19:40.401Z,44.00
2022-08-27T14:24:42.906Z,44.30
2022-08-27T14:29:47.148Z,43.90
2022-08-27T14:34:49.615Z,44.30
2022-08-27T14:39:52.241Z,44.70
2022-08-27T14:44:56.213Z,44.70
2022-08-27T14:49:59.376Z,44.40
2022-08-27T14:55:02.499Z,44.40
2022-08-27T15:00:10.498Z,44.50
2022-08-27T15:05:12.790Z,44.40
2022-08-27T15:10:15.908Z,45.40
2022-08-27T15:15:21.971Z,44.90
2022-08-27T15:20:24.652Z,45.20
2022-08-27T15:25:27.303Z,45.80
2022-08-27T15:30:31.220Z,45.90
2022-08-27T15:35:34.527Z,45.70
2022-08-27T15:40:37.229Z,45.60
2022-08-27T15:45:41.423Z,45.90
2022-08-27T15:50:44.045Z,46.20
2022-08-27T15:55:46.703Z,46.40
2022-08-27T16:00:54.569Z,46.60
2022-08-27T16:06:05.218Z,47.00
2022-08-27T16:11:07.838Z,46.50
2022-08-27T16:16:12.678Z,46.30
2022-08-27T16:21:15.421Z,46.20
2022-08-27T16:26:17.953Z,46.50
2022-08-27T16:31:21.871Z,46.70
2022-08-27T16:36:25.149Z,46.70
2022-08-27T16:41:28.247Z,47.00
2022-08-27T16:46:35.667Z,47.30
2022-08-27T16:51:38.671Z,47.60
2022-08-27T16:56:41.266Z,47.80
2022-08-27T17:01:49.052Z,47.70
2022-08-27T17:06:51.735Z,47.90
2022-08-27T17:11:57.638Z,48.00
2022-08-27T17:17:01.659Z,48.40
2022-08-27T17:22:04.780Z,48.70
2022-08-27T17:27:07.259Z,48.70
2022-08-27T17:32:11.120Z,48.60
2022-08-27T17:37:13.568Z,48.70
2022-08-27T17:42:16.068Z,48.90
2022-08-27T17:47:19.962Z,49.00
2022-08-27T17:52:22.938Z,49.30
2022-08-27T17:57:40.549Z,49.50
2022-08-27T18:02:53.094Z,49.90
2022-08-27T18:08:05.355Z,50.20
2022-08-27T18:13:14.223Z,50.20
2022-08-27T18:18:30.250Z,50.40
2022-08-27T18:23:41.242Z,50.90
2022-08-27T18:28:50.020Z,51.10
2022-08-27T18:34:00.140Z,51.40
2022-08-27T18:39:07.983Z,51.80
2022-08-27T18:44:18.016Z,52.00
2022-08-27T18:49:27.982Z,52.30
2022-08-27T18:54:34.937Z,52.80
2022-08-27T18:59:43.090Z,52.90
2022-08-27T19:04:54.153Z,53.10
2022-08-27T19:10:01.782Z,53.30
2022-08-27T19:15:05.522Z,54.20
2022-08-27T19:20:16.462Z,53.50
2022-08-27T19:25:19.314Z,54.20
2022-08-27T19:30:22.522Z,54.30
2022-08-27T19:35:26.601Z,54.80
2022-08-27T19:40:29.154Z,55.20
2022-08-27T19:45:31.900Z,55.30
2022-08-27T19:50:36.441Z,55.40
2022-08-27T19:55:38.983Z,55.60
2022-08-27T20:00:42.675Z,55.60
2022-08-27T20:05:49.021Z,55.70
2022-08-27T20:10:51.589Z,56.10
2022-08-27T20:15:54.109Z,56.00
2022-08-27T20:20:58.234Z,56.30
2022-08-27T20:26:01.527Z,56.70
2022-08-27T20:31:04.741Z,56.80
2022-08-27T20:36:09.350Z,57.00
2022-08-27T20:41:12.113Z,57.20
2022-08-27T20:46:15.266Z,57.20
2022-08-27T20:51:19.901Z,57.30
2022-08-27T20:56:22.839Z,57.60
2022-08-27T21:01:25.366Z,57.50
2022-08-27T21:06:33.316Z,57.60
2022-08-27T21:11:35.921Z,58.00
2022-08-27T21:16:39.124Z,58.20
2022-08-27T21:21:43.221Z,58.40
2022-08-27T21:26:46.082Z,58.40
2022-08-27T21:31:48.918Z,58.50
2022-08-27T21:36:52.851Z,58.60
2022-08-27T21:41:56.040Z,58.90
2022-08-27T21:46:58.743Z,59.00
2022-08-27T21:52:04.718Z,58.90
2022-08-27T21:57:08.739Z,59.10
2022-08-27T22:02:38.763Z,58.90
2022-08-27T22:07:43.224Z,59.20
2022-08-27T22:12:45.881Z,59.40
2022-08-27T22:17:51.215Z,59.20
2022-08-27T22:22:57.101Z,59.30
2022-08-27T22:27:59.525Z,59.60
2022-08-27T22:33:02.059Z,59.60
2022-08-27T22:38:06.878Z,59.70
2022-08-27T22:43:09.918Z,60.00
2022-08-27T22:48:12.654Z,59.90
2022-08-27T22:53:16.797Z,60.10
2022-08-27T22:58:19.758Z,60.60
2022-08-27T23:03:27.917Z,60.60
2022-08-27T23:08:32.303Z,60.50
2022-08-27T23:13:35.302Z,60.80
2022-08-27T23:18:38.649Z,60.70
2022-08-27T23:23:42.781Z,60.80
2022-08-27T23:28:45.617Z,61.20
2022-08-27T23:33:51.897Z,61.30
2022-08-27T23:38:55.899Z,61.80
2022-08-27T23:43:58.516Z,61.60
2022-08-27T23:49:00.913Z,61.60
2022-08-27T23:54:04.900Z,61.80
2022-08-27T23:59:07.990Z,62.20
